Historyczne dane pomiarowe

Dodano dane terminowe – wersja testowa.

Dane z okresu 1951-2019

Wersja bazy: 1.34 [2019-03-16, lista zmian], aktualizacja planowana na 2019-04-15

Dane meteo z obszaru Polski uzyskane na podstawie danych udostępnionych przez Instytut Meteorologii i Gospodarki Wodnej – Państwowy Instytut Badawczy.

 

Wybierz Datę:    

       

TemperaturaWilgotnośćZachmurzenieWiatrCiśnienieWidzialnośćZjawiska
 Data    tng td wb rh cc ccl cl cm ch dir g1 g2 mslp ppp      
1973-05-13 00:00:00 -1.4--- -4.1 -2.482wxwxwx14wx--- 840.9 0.0---wx
1973-05-13 01:00:00 -2.2------wxwxwx14wx--- 840.6----wx
1973-05-13 02:00:00 -2.7------wxwxwx15wx--- 840.5----wxw1
1973-05-13 03:00:00 -2.2--- -2.5 -2.298wxwxwx17wx--- 840.1----wxw1
1973-05-13 04:00:00 -2.2------wxwxwx16wx--- 840.3----wx
1973-05-13 05:00:00 -1.9------wxwxwx13wx--- 840.7----wx
1973-05-13 06:00:00 -1.5--- -4.4 -2.681wxwxwxwx8wx--- 840.7 0.1---wxw1
1973-05-13 07:00:00 -0.5------wxwxwxwx9wx--- 841.1----wx
1973-05-13 08:00:00 -0.1------wxwxwxwx8wx--- 841.4----wx
1973-05-13 09:00:00 1.6--- -1.4 0.379wxwxwxwxwx3wx--- 841.6----wx
1973-05-13 10:00:00 2.0------wxwxwxwx2wx--- 841.8----wx
1973-05-13 11:00:00 2.8------wxwxwxwxwx3wx--- 841.8----wx
1973-05-13 12:00:00 4.0--- -1.9 1.466wxwxwxwxwx4wx--- 841.7 0.0---wx
1973-05-13 13:00:00 4.5------wxwxwxwxwx4wx--- 841.3----wx
1973-05-13 14:00:00 4.0------wxwxwxwxwx5wx--- 841.3----wx
1973-05-13 15:00:00 5.0--- -0.7 2.467wxwxwxwx4wx--- 841.0----wx
1973-05-13 16:00:00 4.2------wxwxwxwxwx7wx--- 840.9----wx
1973-05-13 17:00:00 3.9------wxwxwxwxwx8wx--- 840.6----wx
1973-05-13 18:00:00 3.6--- -0.5 1.875wxwxwxwx9wx--- 840.7 0.0---wx
1973-05-13 19:00:00 3.4------wxwxwxwxwx9wx--- 840.5----wx
1973-05-13 20:00:00 3.4------wxwxwx9wx--- 840.4----wx
1973-05-13 21:00:00 3.6--- -0.5 1.875wxwxwx12wx--- 840.3----wxw1
1973-05-13 22:00:00 4.2------wxwxwx15wx--- 840.0----wx
1973-05-13 23:00:00 4.2------wxwxwx15wx--- 839.5----wx

 

Źródłem pochodzenia danych jest Instytut Meteorologii i Gospodarki Wodnej – Państwowy Instytut Badawczy. Dane Instytutu Meteorologii i Gospodarki Wodnej – Państwowego Instytutu Badawczego zostały przetworzone.

Dane źródłowe można odnaleźć na stronie https://dane.imgw.pl